sensor_id;sensor_type;location;lat;lon;timestamp;temperature;humidity
25450;DHT22;13371;52.080;5.624;2024-03-02T00:00:08;9.90;99.90
25450;DHT22;13371;52.080;5.624;2024-03-02T00:02:43;9.90;99.90
25450;DHT22;13371;52.080;5.624;2024-03-02T00:07:43;9.90;99.90
25450;DHT22;13371;52.080;5.624;2024-03-02T00:10:10;9.70;99.90
25450;DHT22;13371;52.080;5.624;2024-03-02T00:12:37;9.70;99.90
25450;DHT22;13371;52.080;5.624;2024-03-02T00:18:07;9.70;99.90
25450;DHT22;13371;52.080;5.624;2024-03-02T00:20:33;9.90;99.90
25450;DHT22;13371;52.080;5.624;2024-03-02T00:23:03;9.90;99.90
25450;DHT22;13371;52.080;5.624;2024-03-02T00:28:04;9.80;99.90
25450;DHT22;13371;52.080;5.624;2024-03-02T00:30:59;9.80;99.90
25450;DHT22;13371;52.080;5.624;2024-03-02T00:33:34;9.90;99.90
25450;DHT22;13371;52.080;5.624;2024-03-02T00:36:01;9.90;99.90
25450;DHT22;13371;52.080;5.624;2024-03-02T00:38:29;9.90;99.90
25450;DHT22;13371;52.080;5.624;2024-03-02T00:40:55;9.90;99.90
25450;DHT22;13371;52.080;5.624;2024-03-02T00:46:00;9.80;99.90
25450;DHT22;13371;52.080;5.624;2024-03-02T00:48:25;10.10;99.90
25450;DHT22;13371;52.080;5.624;2024-03-02T00:50:52;10.20;99.90
25450;DHT22;13371;52.080;5.624;2024-03-02T00:53:21;10.20;99.90
25450;DHT22;13371;52.080;5.624;2024-03-02T00:55:49;10.20;99.90
25450;DHT22;13371;52.080;5.624;2024-03-02T00:58:14;10.00;99.90
25450;DHT22;13371;52.080;5.624;2024-03-02T01:00:40;10.10;99.90
25450;DHT22;13371;52.080;5.624;2024-03-02T01:03:05;10.40;99.90
25450;DHT22;13371;52.080;5.624;2024-03-02T01:05:31;10.40;99.90
25450;DHT22;13371;52.080;5.624;2024-03-02T01:07:57;10.40;99.90
25450;DHT22;13371;52.080;5.624;2024-03-02T01:10:22;10.50;99.90
25450;DHT22;13371;52.080;5.624;2024-03-02T01:12:48;10.40;99.90
25450;DHT22;13371;52.080;5.624;2024-03-02T01:15:14;10.40;99.90
25450;DHT22;13371;52.080;5.624;2024-03-02T01:17:39;10.40;99.90
25450;DHT22;13371;52.080;5.624;2024-03-02T01:20:08;10.40;99.90
25450;DHT22;13371;52.080;5.624;2024-03-02T01:22:34;10.70;99.90
25450;DHT22;13371;52.080;5.624;2024-03-02T01:24:59;10.90;99.90
25450;DHT22;13371;52.080;5.624;2024-03-02T01:27:25;10.70;99.90
25450;DHT22;13371;52.080;5.624;2024-03-02T01:29:50;10.20;99.90
25450;DHT22;13371;52.080;5.624;2024-03-02T01:32:16;10.30;99.90
25450;DHT22;13371;52.080;5.624;2024-03-02T01:34:42;10.30;99.90
25450;DHT22;13371;52.080;5.624;2024-03-02T01:37:07;10.00;99.90
25450;DHT22;13371;52.080;5.624;2024-03-02T01:39:33;9.80;99.90
25450;DHT22;13371;52.080;5.624;2024-03-02T01:41:59;9.90;99.90
25450;DHT22;13371;52.080;5.624;2024-03-02T01:44:24;10.00;99.90
25450;DHT22;13371;52.080;5.624;2024-03-02T01:46:50;9.90;99.90
25450;DHT22;13371;52.080;5.624;2024-03-02T01:49:16;10.10;99.90
25450;DHT22;13371;52.080;5.624;2024-03-02T01:51:41;9.80;99.90
25450;DHT22;13371;52.080;5.624;2024-03-02T01:54:07;9.90;99.90
25450;DHT22;13371;52.080;5.624;2024-03-02T01:56:33;10.30;99.90
25450;DHT22;13371;52.080;5.624;2024-03-02T01:58:59;10.20;99.90
25450;DHT22;13371;52.080;5.624;2024-03-02T02:01:24;10.00;99.90
25450;DHT22;13371;52.080;5.624;2024-03-02T02:03:50;9.80;99.90
25450;DHT22;13371;52.080;5.624;2024-03-02T02:06:15;9.70;99.90
25450;DHT22;13371;52.080;5.624;2024-03-02T02:08:41;9.70;99.90
25450;DHT22;13371;52.080;5.624;2024-03-02T02:11:07;9.80;99.90
25450;DHT22;13371;52.080;5.624;2024-03-02T02:13:32;9.80;99.90
25450;DHT22;13371;52.080;5.624;2024-03-02T02:16:07;9.70;99.90
25450;DHT22;13371;52.080;5.624;2024-03-02T02:18:33;9.80;99.90
25450;DHT22;13371;52.080;5.624;2024-03-02T02:20:59;9.90;99.90
25450;DHT22;13371;52.080;5.624;2024-03-02T02:23:25;9.80;99.90
25450;DHT22;13371;52.080;5.624;2024-03-02T02:25:50;10.00;99.90
25450;DHT22;13371;52.080;5.624;2024-03-02T02:28:16;10.00;99.90
25450;DHT22;13371;52.080;5.624;2024-03-02T02:30:42;9.90;99.90
25450;DHT22;13371;52.080;5.624;2024-03-02T02:33:08;9.90;99.90
25450;DHT22;13371;52.080;5.624;2024-03-02T02:35:34;9.90;99.90
25450;DHT22;13371;52.080;5.624;2024-03-02T02:38:00;10.00;99.90
25450;DHT22;13371;52.080;5.624;2024-03-02T02:40:26;9.90;99.90
25450;DHT22;13371;52.080;5.624;2024-03-02T02:42:52;9.90;99.90
25450;DHT22;13371;52.080;5.624;2024-03-02T02:45:18;9.70;99.90
25450;DHT22;13371;52.080;5.624;2024-03-02T02:47:44;9.90;99.90
25450;DHT22;13371;52.080;5.624;2024-03-02T02:50:11;9.60;99.90
25450;DHT22;13371;52.080;5.624;2024-03-02T02:52:38;9.70;99.90
25450;DHT22;13371;52.080;5.624;2024-03-02T02:55:07;9.70;99.90
25450;DHT22;13371;52.080;5.624;2024-03-02T02:57:33;9.90;99.90
25450;DHT22;13371;52.080;5.624;2024-03-02T03:00:13;9.90;99.90
25450;DHT22;13371;52.080;5.624;2024-03-02T03:02:43;9.90;99.90
25450;DHT22;13371;52.080;5.624;2024-03-02T03:05:10;10.00;99.90
25450;DHT22;13371;52.080;5.624;2024-03-02T03:07:37;9.90;99.90
25450;DHT22;13371;52.080;5.624;2024-03-02T03:10:03;9.50;99.90
25450;DHT22;13371;52.080;5.624;2024-03-02T03:12:30;9.50;99.90
25450;DHT22;13371;52.080;5.624;2024-03-02T03:14:56;9.60;99.90
25450;DHT22;13371;52.080;5.624;2024-03-02T03:17:22;9.70;99.90
25450;DHT22;13371;52.080;5.624;2024-03-02T03:19:49;9.90;99.90
25450;DHT22;13371;52.080;5.624;2024-03-02T03:22:14;9.90;99.90
25450;DHT22;13371;52.080;5.624;2024-03-02T03:24:40;9.90;99.90
25450;DHT22;13371;52.080;5.624;2024-03-02T03:27:06;9.90;99.90
25450;DHT22;13371;52.080;5.624;2024-03-02T03:29:31;10.00;99.90
25450;DHT22;13371;52.080;5.624;2024-03-02T03:31:57;9.90;99.90
25450;DHT22;13371;52.080;5.624;2024-03-02T03:34:22;9.90;99.90
25450;DHT22;13371;52.080;5.624;2024-03-02T03:36:48;9.80;99.90
25450;DHT22;13371;52.080;5.624;2024-03-02T03:39:14;9.80;99.90
25450;DHT22;13371;52.080;5.624;2024-03-02T03:41:40;9.70;99.90
25450;DHT22;13371;52.080;5.624;2024-03-02T03:44:06;9.60;99.90
25450;DHT22;13371;52.080;5.624;2024-03-02T03:46:32;9.50;99.90
25450;DHT22;13371;52.080;5.624;2024-03-02T03:48:57;9.30;99.90
25450;DHT22;13371;52.080;5.624;2024-03-02T03:51:23;9.20;99.90
25450;DHT22;13371;52.080;5.624;2024-03-02T03:53:49;9.50;99.90
25450;DHT22;13371;52.080;5.624;2024-03-02T03:56:14;9.20;99.90
25450;DHT22;13371;52.080;5.624;2024-03-02T03:58:40;9.40;99.90
25450;DHT22;13371;52.080;5.624;2024-03-02T04:01:05;9.30;99.90
25450;DHT22;13371;52.080;5.624;2024-03-02T04:03:31;9.20;99.90
25450;DHT22;13371;52.080;5.624;2024-03-02T04:05:57;8.90;99.90
25450;DHT22;13371;52.080;5.624;2024-03-02T04:08:23;8.90;99.90
25450;DHT22;13371;52.080;5.624;2024-03-02T04:10:48;9.10;99.90
25450;DHT22;13371;52.080;5.624;2024-03-02T04:13:14;9.10;99.90
25450;DHT22;13371;52.080;5.624;2024-03-02T04:15:40;9.00;99.90
25450;DHT22;13371;52.080;5.624;2024-03-02T04:18:08;9.10;99.90
25450;DHT22;13371;52.080;5.624;2024-03-02T04:20:34;9.10;99.90
25450;DHT22;13371;52.080;5.624;2024-03-02T04:22:59;9.10;99.90
25450;DHT22;13371;52.080;5.624;2024-03-02T04:25:25;9.00;99.90
25450;DHT22;13371;52.080;5.624;2024-03-02T04:27:50;8.90;99.90
25450;DHT22;13371;52.080;5.624;2024-03-02T04:30:16;9.10;99.90
25450;DHT22;13371;52.080;5.624;2024-03-02T04:32:42;9.10;99.90
25450;DHT22;13371;52.080;5.624;2024-03-02T04:35:11;9.20;99.90
25450;DHT22;13371;52.080;5.624;2024-03-02T04:37:38;8.90;99.90
25450;DHT22;13371;52.080;5.624;2024-03-02T04:40:04;8.90;99.90
25450;DHT22;13371;52.080;5.624;2024-03-02T04:42:33;8.90;99.90
25450;DHT22;13371;52.080;5.624;2024-03-02T04:44:59;8.90;99.90
25450;DHT22;13371;52.080;5.624;2024-03-02T04:47:24;9.00;99.90
25450;DHT22;13371;52.080;5.624;2024-03-02T04:49:50;9.00;99.90
25450;DHT22;13371;52.080;5.624;2024-03-02T04:52:16;9.20;99.90
25450;DHT22;13371;52.080;5.624;2024-03-02T04:54:42;9.20;99.90
25450;DHT22;13371;52.080;5.624;2024-03-02T04:57:27;9.10;99.90
25450;DHT22;13371;52.080;5.624;2024-03-02T04:59:52;9.10;99.90
25450;DHT22;13371;52.080;5.624;2024-03-02T05:02:18;9.00;99.90
25450;DHT22;13371;52.080;5.624;2024-03-02T05:04:44;9.10;99.90
25450;DHT22;13371;52.080;5.624;2024-03-02T05:07:09;9.00;99.90
25450;DHT22;13371;52.080;5.624;2024-03-02T05:09:35;9.20;99.90
25450;DHT22;13371;52.080;5.624;2024-03-02T05:12:01;9.30;99.90
25450;DHT22;13371;52.080;5.624;2024-03-02T05:14:45;9.00;99.90
25450;DHT22;13371;52.080;5.624;2024-03-02T05:17:11;9.10;99.90
25450;DHT22;13371;52.080;5.624;2024-03-02T05:19:37;9.20;99.90
25450;DHT22;13371;52.080;5.624;2024-03-02T05:22:02;8.90;99.90
25450;DHT22;13371;52.080;5.624;2024-03-02T05:24:28;8.80;99.90
25450;DHT22;13371;52.080;5.624;2024-03-02T05:26:54;9.20;99.90
25450;DHT22;13371;52.080;5.624;2024-03-02T05:29:20;9.10;99.90
25450;DHT22;13371;52.080;5.624;2024-03-02T05:31:46;9.10;99.90
25450;DHT22;13371;52.080;5.624;2024-03-02T05:34:11;9.10;99.90
25450;DHT22;13371;52.080;5.624;2024-03-02T05:36:37;9.10;99.90
25450;DHT22;13371;52.080;5.624;2024-03-02T05:39:04;9.20;99.90
25450;DHT22;13371;52.080;5.624;2024-03-02T05:41:31;9.20;99.90
25450;DHT22;13371;52.080;5.624;2024-03-02T05:43:57;9.50;99.90
25450;DHT22;13371;52.080;5.624;2024-03-02T05:46:22;9.70;99.90
25450;DHT22;13371;52.080;5.624;2024-03-02T05:48:48;9.50;99.90
25450;DHT22;13371;52.080;5.624;2024-03-02T05:51:14;9.10;99.90
25450;DHT22;13371;52.080;5.624;2024-03-02T05:53:39;9.20;99.90
25450;DHT22;13371;52.080;5.624;2024-03-02T05:56:05;9.20;99.90
25450;DHT22;13371;52.080;5.624;2024-03-02T05:58:31;9.00;99.90
25450;DHT22;13371;52.080;5.624;2024-03-02T06:01:23;8.80;99.90
25450;DHT22;13371;52.080;5.624;2024-03-02T06:03:55;9.00;99.90
25450;DHT22;13371;52.080;5.624;2024-03-02T06:06:20;8.70;99.90
25450;DHT22;13371;52.080;5.624;2024-03-02T06:08:46;8.80;99.90
25450;DHT22;13371;52.080;5.624;2024-03-02T06:11:11;8.80;99.90
25450;DHT22;13371;52.080;5.624;2024-03-02T06:13:37;8.90;99.90
25450;DHT22;13371;52.080;5.624;2024-03-02T06:16:03;9.10;99.90
25450;DHT22;13371;52.080;5.624;2024-03-02T06:18:28;8.90;99.90
25450;DHT22;13371;52.080;5.624;2024-03-02T06:20:54;8.90;99.90
25450;DHT22;13371;52.080;5.624;2024-03-02T06:23:19;9.00;99.90
25450;DHT22;13371;52.080;5.624;2024-03-02T06:25:45;8.90;99.90
25450;DHT22;13371;52.080;5.624;2024-03-02T06:28:11;8.90;99.90
25450;DHT22;13371;52.080;5.624;2024-03-02T06:30:36;8.80;99.90
25450;DHT22;13371;52.080;5.624;2024-03-02T06:33:02;8.50;99.90
25450;DHT22;13371;52.080;5.624;2024-03-02T06:35:29;8.70;99.90
25450;DHT22;13371;52.080;5.624;2024-03-02T06:37:55;8.80;99.90
25450;DHT22;13371;52.080;5.624;2024-03-02T06:40:20;8.90;99.90
25450;DHT22;13371;52.080;5.624;2024-03-02T06:42:47;8.70;99.90
25450;DHT22;13371;52.080;5.624;2024-03-02T06:45:12;8.60;99.90
25450;DHT22;13371;52.080;5.624;2024-03-02T06:47:38;8.80;99.90
25450;DHT22;13371;52.080;5.624;2024-03-02T06:50:04;8.80;99.90
25450;DHT22;13371;52.080;5.624;2024-03-02T06:52:29;8.80;99.90
25450;DHT22;13371;52.080;5.624;2024-03-02T06:54:55;8.70;99.90
25450;DHT22;13371;52.080;5.624;2024-03-02T06:57:21;8.60;99.90
25450;DHT22;13371;52.080;5.624;2024-03-02T06:59:46;8.30;99.90
25450;DHT22;13371;52.080;5.624;2024-03-02T07:02:14;8.30;99.90
25450;DHT22;13371;52.080;5.624;2024-03-02T07:04:39;8.50;99.90
25450;DHT22;13371;52.080;5.624;2024-03-02T07:07:05;8.80;99.90
25450;DHT22;13371;52.080;5.624;2024-03-02T07:09:31;8.90;99.90
25450;DHT22;13371;52.080;5.624;2024-03-02T07:11:56;8.90;99.90
25450;DHT22;13371;52.080;5.624;2024-03-02T07:14:22;9.10;99.90
25450;DHT22;13371;52.080;5.624;2024-03-02T07:17:07;9.30;99.90
25450;DHT22;13371;52.080;5.624;2024-03-02T07:19:33;9.40;99.90
25450;DHT22;13371;52.080;5.624;2024-03-02T07:21:58;9.50;99.90
25450;DHT22;13371;52.080;5.624;2024-03-02T07:24:24;9.70;99.90
25450;DHT22;13371;52.080;5.624;2024-03-02T07:26:49;9.60;99.90
25450;DHT22;13371;52.080;5.624;2024-03-02T07:29:15;9.40;99.90
25450;DHT22;13371;52.080;5.624;2024-03-02T07:31:41;9.60;99.90
25450;DHT22;13371;52.080;5.624;2024-03-02T07:34:07;9.40;99.90
25450;DHT22;13371;52.080;5.624;2024-03-02T07:36:35;9.40;99.90
25450;DHT22;13371;52.080;5.624;2024-03-02T07:39:02;9.40;99.90
25450;DHT22;13371;52.080;5.624;2024-03-02T07:41:27;9.50;99.90
25450;DHT22;13371;52.080;5.624;2024-03-02T07:43:55;9.80;99.90
25450;DHT22;13371;52.080;5.624;2024-03-02T07:46:21;9.90;99.90
25450;DHT22;13371;52.080;5.624;2024-03-02T07:48:46;9.80;99.90
25450;DHT22;13371;52.080;5.624;2024-03-02T07:51:13;10.30;99.90
25450;DHT22;13371;52.080;5.624;2024-03-02T07:53:39;10.50;99.90
25450;DHT22;13371;52.080;5.624;2024-03-02T07:56:05;11.10;99.90
25450;DHT22;13371;52.080;5.624;2024-03-02T07:58:31;11.90;99.90
25450;DHT22;13371;52.080;5.624;2024-03-02T08:00:59;12.60;99.90
25450;DHT22;13371;52.080;5.624;2024-03-02T08:03:26;12.10;99.90
25450;DHT22;13371;52.080;5.624;2024-03-02T08:05:52;12.70;99.90
25450;DHT22;13371;52.080;5.624;2024-03-02T08:08:18;12.50;99.90
25450;DHT22;13371;52.080;5.624;2024-03-02T08:10:44;12.30;99.90
25450;DHT22;13371;52.080;5.624;2024-03-02T08:13:09;12.20;99.90
25450;DHT22;13371;52.080;5.624;2024-03-02T08:15:35;12.20;99.90
25450;DHT22;13371;52.080;5.624;2024-03-02T08:18:01;12.40;99.90
25450;DHT22;13371;52.080;5.624;2024-03-02T08:20:27;12.20;99.90
25450;DHT22;13371;52.080;5.624;2024-03-02T08:22:53;11.40;99.90
25450;DHT22;13371;52.080;5.624;2024-03-02T08:25:21;11.50;99.90
25450;DHT22;13371;52.080;5.624;2024-03-02T08:27:47;11.60;99.90
25450;DHT22;13371;52.080;5.624;2024-03-02T08:30:13;11.50;99.90
25450;DHT22;13371;52.080;5.624;2024-03-02T08:32:39;11.40;99.90
25450;DHT22;13371;52.080;5.624;2024-03-02T08:35:06;11.50;99.90
25450;DHT22;13371;52.080;5.624;2024-03-02T08:37:35;11.70;99.90
25450;DHT22;13371;52.080;5.624;2024-03-02T08:40:06;11.50;99.90
25450;DHT22;13371;52.080;5.624;2024-03-02T08:42:33;11.40;99.90
25450;DHT22;13371;52.080;5.624;2024-03-02T08:44:58;11.00;99.90
25450;DHT22;13371;52.080;5.624;2024-03-02T08:47:26;10.80;99.90
25450;DHT22;13371;52.080;5.624;2024-03-02T08:49:52;10.50;99.90
25450;DHT22;13371;52.080;5.624;2024-03-02T08:52:18;10.60;99.90
25450;DHT22;13371;52.080;5.624;2024-03-02T08:54:44;10.70;99.90
25450;DHT22;13371;52.080;5.624;2024-03-02T08:57:13;11.00;99.90
25450;DHT22;13371;52.080;5.624;2024-03-02T08:59:39;11.00;99.90
25450;DHT22;13371;52.080;5.624;2024-03-02T09:02:07;10.90;99.90
25450;DHT22;13371;52.080;5.624;2024-03-02T09:04:35;10.70;99.90
25450;DHT22;13371;52.080;5.624;2024-03-02T09:07:01;10.60;99.90
25450;DHT22;13371;52.080;5.624;2024-03-02T09:09:27;11.10;99.90
25450;DHT22;13371;52.080;5.624;2024-03-02T09:11:52;11.20;99.90
25450;DHT22;13371;52.080;5.624;2024-03-02T09:14:22;11.10;99.90
25450;DHT22;13371;52.080;5.624;2024-03-02T09:16:51;11.20;99.90
25450;DHT22;13371;52.080;5.624;2024-03-02T09:19:16;11.70;99.90
25450;DHT22;13371;52.080;5.624;2024-03-02T09:21:42;11.70;99.90
25450;DHT22;13371;52.080;5.624;2024-03-02T09:24:09;11.60;99.90
25450;DHT22;13371;52.080;5.624;2024-03-02T09:26:35;11.80;99.90
25450;DHT22;13371;52.080;5.624;2024-03-02T09:29:01;12.20;99.90
25450;DHT22;13371;52.080;5.624;2024-03-02T09:31:27;12.40;99.90
25450;DHT22;13371;52.080;5.624;2024-03-02T09:33:52;12.10;99.50
25450;DHT22;13371;52.080;5.624;2024-03-02T09:36:19;11.90;99.90
25450;DHT22;13371;52.080;5.624;2024-03-02T09:38:45;12.10;99.90
25450;DHT22;13371;52.080;5.624;2024-03-02T09:41:12;12.00;99.90
25450;DHT22;13371;52.080;5.624;2024-03-02T09:43:38;12.20;99.90
25450;DHT22;13371;52.080;5.624;2024-03-02T09:46:03;12.20;99.70
25450;DHT22;13371;52.080;5.624;2024-03-02T09:48:29;12.40;99.90
25450;DHT22;13371;52.080;5.624;2024-03-02T09:50:55;12.30;99.90
25450;DHT22;13371;52.080;5.624;2024-03-02T09:53:20;12.40;99.10
25450;DHT22;13371;52.080;5.624;2024-03-02T09:55:47;12.60;99.60
25450;DHT22;13371;52.080;5.624;2024-03-02T09:58:13;12.70;97.80
25450;DHT22;13371;52.080;5.624;2024-03-02T10:00:39;12.70;98.40
25450;DHT22;13371;52.080;5.624;2024-03-02T10:03:05;12.70;97.50
25450;DHT22;13371;52.080;5.624;2024-03-02T10:05:31;12.50;97.50
25450;DHT22;13371;52.080;5.624;2024-03-02T10:08:01;12.40;98.40
25450;DHT22;13371;52.080;5.624;2024-03-02T10:10:38;12.20;98.30
25450;DHT22;13371;52.080;5.624;2024-03-02T10:13:09;12.40;98.30
25450;DHT22;13371;52.080;5.624;2024-03-02T10:15:39;12.30;99.70
25450;DHT22;13371;52.080;5.624;2024-03-02T10:18:11;12.60;98.50
25450;DHT22;13371;52.080;5.624;2024-03-02T10:20:38;12.50;97.90
25450;DHT22;13371;52.080;5.624;2024-03-02T10:23:14;12.40;99.00
25450;DHT22;13371;52.080;5.624;2024-03-02T10:25:47;12.80;99.50
25450;DHT22;13371;52.080;5.624;2024-03-02T10:28:16;12.70;98.50
25450;DHT22;13371;52.080;5.624;2024-03-02T10:30:41;13.10;98.30
25450;DHT22;13371;52.080;5.624;2024-03-02T10:33:07;13.10;97.10
25450;DHT22;13371;52.080;5.624;2024-03-02T10:35:33;13.00;96.70
25450;DHT22;13371;52.080;5.624;2024-03-02T10:38:03;12.80;96.30
25450;DHT22;13371;52.080;5.624;2024-03-02T10:40:32;13.00;96.00
25450;DHT22;13371;52.080;5.624;2024-03-02T10:43:06;13.40;96.50
25450;DHT22;13371;52.080;5.624;2024-03-02T10:45:35;13.70;96.60
25450;DHT22;13371;52.080;5.624;2024-03-02T10:48:09;14.00;95.00
25450;DHT22;13371;52.080;5.624;2024-03-02T10:50:38;14.30;94.80
25450;DHT22;13371;52.080;5.624;2024-03-02T10:53:16;14.70;93.50
25450;DHT22;13371;52.080;5.624;2024-03-02T10:55:46;14.30;92.90
25450;DHT22;13371;52.080;5.624;2024-03-02T10:58:26;14.50;92.50
25450;DHT22;13371;52.080;5.624;2024-03-02T11:00:55;14.00;92.90
25450;DHT22;13371;52.080;5.624;2024-03-02T11:03:25;13.80;93.30
25450;DHT22;13371;52.080;5.624;2024-03-02T11:05:51;14.00;94.10
25450;DHT22;13371;52.080;5.624;2024-03-02T11:11:18;14.20;92.30
25450;DHT22;13371;52.080;5.624;2024-03-02T11:13:49;14.20;92.80
25450;DHT22;13371;52.080;5.624;2024-03-02T11:16:37;14.00;92.70
25450;DHT22;13371;52.080;5.624;2024-03-02T11:19:12;14.20;91.50
25450;DHT22;13371;52.080;5.624;2024-03-02T11:21:41;14.10;92.00
25450;DHT22;13371;52.080;5.624;2024-03-02T11:26:58;14.50;92.50
25450;DHT22;13371;52.080;5.624;2024-03-02T11:32:03;14.10;91.30
25450;DHT22;13371;52.080;5.624;2024-03-02T11:34:36;14.20;91.90
25450;DHT22;13371;52.080;5.624;2024-03-02T11:37:27;14.20;91.70
25450;DHT22;13371;52.080;5.624;2024-03-02T11:40:02;14.30;91.70
25450;DHT22;13371;52.080;5.624;2024-03-02T11:42:43;13.60;91.40
25450;DHT22;13371;52.080;5.624;2024-03-02T11:45:09;13.30;92.10
25450;DHT22;13371;52.080;5.624;2024-03-02T11:47:35;13.30;92.40
25450;DHT22;13371;52.080;5.624;2024-03-02T11:50:01;13.50;92.00
25450;DHT22;13371;52.080;5.624;2024-03-02T11:52:27;13.40;91.90
25450;DHT22;13371;52.080;5.624;2024-03-02T11:54:53;13.50;91.00
25450;DHT22;13371;52.080;5.624;2024-03-02T11:57:23;13.80;90.80
25450;DHT22;13371;52.080;5.624;2024-03-02T11:59:53;14.20;91.40
25450;DHT22;13371;52.080;5.624;2024-03-02T12:02:25;14.40;90.80
25450;DHT22;13371;52.080;5.624;2024-03-02T12:04:51;14.70;90.50
25450;DHT22;13371;52.080;5.624;2024-03-02T12:07:20;14.50;85.60
25450;DHT22;13371;52.080;5.624;2024-03-02T12:10:10;14.20;89.40
25450;DHT22;13371;52.080;5.624;2024-03-02T12:12:35;14.20;89.60
25450;DHT22;13371;52.080;5.624;2024-03-02T12:15:02;14.50;88.10
25450;DHT22;13371;52.080;5.624;2024-03-02T12:17:29;14.60;89.30
25450;DHT22;13371;52.080;5.624;2024-03-02T12:19:54;14.90;89.60
25450;DHT22;13371;52.080;5.624;2024-03-02T12:22:21;14.50;88.90
25450;DHT22;13371;52.080;5.624;2024-03-02T12:24:47;14.40;90.00
25450;DHT22;13371;52.080;5.624;2024-03-02T12:27:15;14.30;90.30
25450;DHT22;13371;52.080;5.624;2024-03-02T12:29:41;14.20;90.60
25450;DHT22;13371;52.080;5.624;2024-03-02T12:32:07;14.50;90.60
25450;DHT22;13371;52.080;5.624;2024-03-02T12:34:32;15.00;89.00
25450;DHT22;13371;52.080;5.624;2024-03-02T12:37:01;14.80;89.00
25450;DHT22;13371;52.080;5.624;2024-03-02T12:39:26;14.80;89.40
25450;DHT22;13371;52.080;5.624;2024-03-02T12:41:52;14.70;86.20
25450;DHT22;13371;52.080;5.624;2024-03-02T12:44:19;14.60;88.80
25450;DHT22;13371;52.080;5.624;2024-03-02T12:46:46;14.30;88.70
25450;DHT22;13371;52.080;5.624;2024-03-02T12:49:14;14.20;89.90
25450;DHT22;13371;52.080;5.624;2024-03-02T12:51:45;14.10;89.30
25450;DHT22;13371;52.080;5.624;2024-03-02T12:54:12;14.50;90.00
25450;DHT22;13371;52.080;5.624;2024-03-02T12:56:38;14.20;88.60
25450;DHT22;13371;52.080;5.624;2024-03-02T12:59:04;14.30;89.40
25450;DHT22;13371;52.080;5.624;2024-03-02T13:01:30;14.70;90.30
25450;DHT22;13371;52.080;5.624;2024-03-02T13:03:58;14.40;88.60
25450;DHT22;13371;52.080;5.624;2024-03-02T13:06:25;14.00;90.40
25450;DHT22;13371;52.080;5.624;2024-03-02T13:08:53;13.90;90.40
25450;DHT22;13371;52.080;5.624;2024-03-02T13:11:21;13.70;91.10
25450;DHT22;13371;52.080;5.624;2024-03-02T13:13:46;13.90;90.20
25450;DHT22;13371;52.080;5.624;2024-03-02T13:16:12;14.00;90.70
25450;DHT22;13371;52.080;5.624;2024-03-02T13:18:42;14.20;90.10
25450;DHT22;13371;52.080;5.624;2024-03-02T13:21:09;13.80;90.10
25450;DHT22;13371;52.080;5.624;2024-03-02T13:23:35;13.80;90.40
25450;DHT22;13371;52.080;5.624;2024-03-02T13:26:01;14.00;91.00
25450;DHT22;13371;52.080;5.624;2024-03-02T13:28:27;13.90;91.00
25450;DHT22;13371;52.080;5.624;2024-03-02T13:30:52;14.10;90.50
25450;DHT22;13371;52.080;5.624;2024-03-02T13:33:18;14.30;91.10
25450;DHT22;13371;52.080;5.624;2024-03-02T13:35:48;14.60;89.40
25450;DHT22;13371;52.080;5.624;2024-03-02T13:38:16;14.80;90.40
25450;DHT22;13371;52.080;5.624;2024-03-02T13:40:42;14.20;89.30
25450;DHT22;13371;52.080;5.624;2024-03-02T13:43:07;14.10;89.20
25450;DHT22;13371;52.080;5.624;2024-03-02T13:45:33;14.00;88.90
25450;DHT22;13371;52.080;5.624;2024-03-02T13:48:00;14.10;90.10
25450;DHT22;13371;52.080;5.624;2024-03-02T13:50:25;14.20;90.10
25450;DHT22;13371;52.080;5.624;2024-03-02T13:52:51;14.70;90.20
25450;DHT22;13371;52.080;5.624;2024-03-02T13:55:16;14.30;88.80
25450;DHT22;13371;52.080;5.624;2024-03-02T13:57:42;14.10;89.40
25450;DHT22;13371;52.080;5.624;2024-03-02T14:00:08;13.90;89.10
25450;DHT22;13371;52.080;5.624;2024-03-02T14:02:37;13.70;90.60
25450;DHT22;13371;52.080;5.624;2024-03-02T14:05:03;14.10;90.10
25450;DHT22;13371;52.080;5.624;2024-03-02T14:07:29;14.20;89.90
25450;DHT22;13371;52.080;5.624;2024-03-02T14:09:55;14.40;90.90
25450;DHT22;13371;52.080;5.624;2024-03-02T14:12:20;14.40;90.50
25450;DHT22;13371;52.080;5.624;2024-03-02T14:14:47;14.80;90.50
25450;DHT22;13371;52.080;5.624;2024-03-02T14:17:13;14.70;90.20
25450;DHT22;13371;52.080;5.624;2024-03-02T14:19:40;15.00;90.50
25450;DHT22;13371;52.080;5.624;2024-03-02T14:22:06;14.70;90.20
25450;DHT22;13371;52.080;5.624;2024-03-02T14:24:32;14.60;90.30
25450;DHT22;13371;52.080;5.624;2024-03-02T14:26:57;14.30;90.60
25450;DHT22;13371;52.080;5.624;2024-03-02T14:29:24;14.20;91.10
25450;DHT22;13371;52.080;5.624;2024-03-02T14:31:50;14.30;91.30
25450;DHT22;13371;52.080;5.624;2024-03-02T14:34:15;14.20;91.10
25450;DHT22;13371;52.080;5.624;2024-03-02T14:36:41;14.50;90.40
25450;DHT22;13371;52.080;5.624;2024-03-02T14:39:10;14.80;90.00
25450;DHT22;13371;52.080;5.624;2024-03-02T14:41:36;14.90;88.80
25450;DHT22;13371;52.080;5.624;2024-03-02T14:44:02;14.40;89.50
25450;DHT22;13371;52.080;5.624;2024-03-02T14:46:35;14.00;90.50
25450;DHT22;13371;52.080;5.624;2024-03-02T14:49:01;13.90;91.80
25450;DHT22;13371;52.080;5.624;2024-03-02T14:51:27;14.10;91.70
25450;DHT22;13371;52.080;5.624;2024-03-02T14:53:55;14.00;91.30
25450;DHT22;13371;52.080;5.624;2024-03-02T14:56:21;14.20;91.90
25450;DHT22;13371;52.080;5.624;2024-03-02T14:58:49;14.10;91.30
25450;DHT22;13371;52.080;5.624;2024-03-02T15:01:18;14.30;91.10
25450;DHT22;13371;52.080;5.624;2024-03-02T15:03:46;14.00;91.00
25450;DHT22;13371;52.080;5.624;2024-03-02T15:06:12;14.20;91.40
25450;DHT22;13371;52.080;5.624;2024-03-02T15:08:37;14.40;90.30
25450;DHT22;13371;52.080;5.624;2024-03-02T15:11:03;14.40;90.10
25450;DHT22;13371;52.080;5.624;2024-03-02T15:13:29;14.10;90.30
25450;DHT22;13371;52.080;5.624;2024-03-02T15:15:55;14.20;90.80
25450;DHT22;13371;52.080;5.624;2024-03-02T15:18:20;14.30;90.10
25450;DHT22;13371;52.080;5.624;2024-03-02T15:20:46;14.10;90.70
25450;DHT22;13371;52.080;5.624;2024-03-02T15:23:12;14.10;90.70
25450;DHT22;13371;52.080;5.624;2024-03-02T15:25:40;14.10;91.10
25450;DHT22;13371;52.080;5.624;2024-03-02T15:28:06;13.80;91.10
25450;DHT22;13371;52.080;5.624;2024-03-02T15:30:31;13.90;91.50
25450;DHT22;13371;52.080;5.624;2024-03-02T15:32:57;14.00;91.40
25450;DHT22;13371;52.080;5.624;2024-03-02T15:35:23;14.20;91.30
25450;DHT22;13371;52.080;5.624;2024-03-02T15:37:48;14.30;92.60
25450;DHT22;13371;52.080;5.624;2024-03-02T15:40:14;14.60;91.50
25450;DHT22;13371;52.080;5.624;2024-03-02T15:42:40;14.10;92.30
25450;DHT22;13371;52.080;5.624;2024-03-02T15:45:05;14.10;92.60
25450;DHT22;13371;52.080;5.624;2024-03-02T15:47:35;14.00;93.20
25450;DHT22;13371;52.080;5.624;2024-03-02T15:50:02;13.60;93.80
25450;DHT22;13371;52.080;5.624;2024-03-02T15:52:29;13.70;93.60
25450;DHT22;13371;52.080;5.624;2024-03-02T15:54:55;13.50;94.30